2015 MotoGP Sepang 1 Test Times - 12:15pm Hondas Lead Lorenzo And Dovizioso

Testing is underway at Sepang, under good conditions, with temperatures reasonable and humidity not too high. Marc Marquez leads after just two hours, but it had taken him a while to set the quickest time, Dani Pedrosa having led earlier, with the two factor Yamahas and Andrea Dovizioso also quick.

Times at 12:15pm

Pos No Rider Bike Time Diff Prev
1 93 Marc Márquez Honda RC213V 2:01.010    
2 26 Dani Pedrosa Honda RC213V 2:01.180 0.170 0.170
3 99 Jorge Lorenzo Yamaha M1 2:01.269 0.259 0.089
4 4 Andrea Dovizioso Ducati GP14.3 2:01.289 0.279 0.020
5 46 Valentino Rossi Yamaha M1 2:01.445 0.435 0.156
6 29 Andrea Iannone Ducati GP14.3 2:01.654 0.644 0.209
7 44 Pol Espargaro Yamaha M1 2:02.194 1.184 0.540
8 35 Cal Crutchlow Honda RC213V 2:02.424 1.414 0.230
9 8 Hector Barbera Ducati GP14 Open 2:02.959 1.949 0.535
10 51 Michele Pirro Ducati GP14.2 2:03.162 2.152 0.203
11 38 Bradley Smith Yamaha M1 2:03.315 2.305 0.153
12 7 Hiroshi Aoyama Honda RC213V Test 2:03.318 2.308 0.003
13 9 Danilo Petrucci Ducati GP14 2:03.366 2.356 0.048
14 T1 Katsuyuki Nakasuga Yamaha M1 Test 2:03.492 2.482 0.126
15 45 Scott Redding Honda RC213V 2:03.530 2.520 0.038
16 19 Alvaro Bautista Aprilia 2:03.546 2.536 0.016
17 6 Stefan Bradl Forward Yamaha 2:03.611 2.601 0.065
18 43 Jack Miller Honda RC213V-RS 2:03.757 2.747 0.146
19 69 Nicky Hayden Honda RC213V-RS 2:03.760 2.750 0.003
20 41 Aleix Espargaro Suzuki GSX-RR 2:04.006 2.996 0.246
21 63 Mike Di Meglio Ducati GP14 Open 2:04.325 3.315 0.319
22 25 Maverick Viñales Suzuki GSX-RR 2:04.403 3.393 0.078
23 17 Karel Abraham Honda RC213V-RS 2:04.639 3.629 0.236
24 72 Takumi Takahashi Honda RC213V Test 2:05.260 4.250 0.621
25 50 Eugene Laverty Honda RC213V-RS 2:05.303 4.293 0.043
26 12 Takuya Tsuda Suzuki GSX-RR 2:05.478 4.468 0.175
27 33 Marco Melandri Aprilia 2:05.542 4.532 0.064
28 76 Loris Baz Forward Yamaha 2:06.092 5.082 0.550
29 15 Alex De Angelis Aprilia ART 2:06.172 5.162 0.080
30 70 Michael Laverty Aprilia 2:10.104 9.094 3.932

 

2015
Tweet Button: 

Back to top